Startpagina
METAR-TAF:

METAR-TAF

Vliegvelden :

Luchthaven El Salvador

El Salvador, El Salvador

breedte: 13-26N, lengte: 089-03W, hoogte: 25 m

Actueel weer

Dit bericht is 13 minuten geleden gemaakt, om 22:50 UTC
Wind 7 kt uit het westzuidwesten, variërend tussen het zuidzuidwesten en het westen
Temperatuur 31°C
Vochtigheid 52%
Druk 1010 hPa
Zicht 10 km of meer
Weinig wolken op 4700 ft

METAR: MSLP 232250Z 25007KT 200V280 9999 FEW047 31/20 Q1010 A2983 NOSIG RMK FU NW

Tijdstip: 17:03 (23:03 UTC)

Verwachting

Dit bericht is 7 uur en het 38 minuten geleden gemaakt, om 15:25 UTC
Verwachting geldig van 23 om 18 UTC tot 24 om 18 UTC
Wind 7 kt uit het noordnoordoosten
Zicht 10 km of meer
geen wolken onder 1500 m en geen cumulonimbus
Van 23 om 2000 UTC
Wind 6 kt uit het zuidzuidoosten
Van 24 om 0000 UTC
Wind 10 kt uit het noorden

TAF: MSLP 231525Z 2318/2418 02007KT CAVOK TX36/2318Z TN23/2410Z FM232000 16006KT FM240000 01010KT

Waarnemingen en weersverwachtingen van meer dan 4000 vliegvelden (METAR en TAF).

De beschikbare stations zijn de gele en rode punten op de kaart.

Ga met uw muis naar het station om de naam te zien.

Klik dan om waarnemingen en weersverwachtingen te zien.

kaart wijzigen: klik op de groene knoppen met een zwart kruis om in te zoomen, op de groene knop met een streepje om uit te zoomen of op de groene pijlen voor aangrenzende kaarten.


METAR-TAF: